sensor_id;sensor_type;location;lat;lon;timestamp;pressure;altitude;pressure_sealevel;temperature;humidity
61484;BME280;47349;55.640;37.692;2023-02-15T00:01:10;99535.50;;;-2.97;93.40
61484;BME280;47349;55.640;37.692;2023-02-15T00:03:37;99531.88;;;-2.94;94.29
61484;BME280;47349;55.640;37.692;2023-02-15T00:06:05;99552.84;;;-2.94;94.09
61484;BME280;47349;55.640;37.692;2023-02-15T00:08:32;99569.50;;;-2.95;94.03
61484;BME280;47349;55.640;37.692;2023-02-15T00:11:10;99524.75;;;-2.92;93.84
61484;BME280;47349;55.640;37.692;2023-02-15T00:13:37;99534.56;;;-2.96;94.59
61484;BME280;47349;55.640;37.692;2023-02-15T00:16:06;99553.03;;;-2.83;94.75
61484;BME280;47349;55.640;37.692;2023-02-15T00:18:33;99563.34;;;-2.94;94.41
61484;BME280;47349;55.640;37.692;2023-02-15T00:21:05;99518.00;;;-2.96;93.75
61484;BME280;47349;55.640;37.692;2023-02-15T00:23:33;99547.50;;;-2.93;95.06
61484;BME280;47349;55.640;37.692;2023-02-15T00:26:04;99541.41;;;-2.93;93.82
61484;BME280;47349;55.640;37.692;2023-02-15T00:28:32;99551.53;;;-2.87;94.06
61484;BME280;47349;55.640;37.692;2023-02-15T00:31:06;99555.81;;;-2.86;94.61
61484;BME280;47349;55.640;37.692;2023-02-15T00:33:34;99541.81;;;-2.85;94.36
61484;BME280;47349;55.640;37.692;2023-02-15T00:36:02;99532.44;;;-2.89;94.66
61484;BME280;47349;55.640;37.692;2023-02-15T00:38:30;99532.63;;;-2.92;94.21
61484;BME280;47349;55.640;37.692;2023-02-15T00:40:58;99551.25;;;-2.97;92.76
61484;BME280;47349;55.640;37.692;2023-02-15T00:43:25;99557.34;;;-2.96;93.47
61484;BME280;47349;55.640;37.692;2023-02-15T00:45:55;99562.41;;;-2.93;94.28
61484;BME280;47349;55.640;37.692;2023-02-15T00:48:22;99572.78;;;-2.92;93.57
61484;BME280;47349;55.640;37.692;2023-02-15T00:50:53;99566.69;;;-2.92;94.17
61484;BME280;47349;55.640;37.692;2023-02-15T00:53:21;99547.31;;;-2.90;93.72
61484;BME280;47349;55.640;37.692;2023-02-15T00:55:49;99547.50;;;-2.93;94.09
61484;BME280;47349;55.640;37.692;2023-02-15T00:58:16;99566.53;;;-2.89;94.31
61484;BME280;47349;55.640;37.692;2023-02-15T01:00:44;99550.88;;;-2.91;94.43
61484;BME280;47349;55.640;37.692;2023-02-15T01:03:12;99553.41;;;-2.89;94.54
61484;BME280;47349;55.640;37.692;2023-02-15T01:05:41;99552.19;;;-2.98;94.26
61484;BME280;47349;55.640;37.692;2023-02-15T01:08:11;99565.97;;;-2.94;95.19
61484;BME280;47349;55.640;37.692;2023-02-15T01:10:38;99570.06;;;-2.90;95.15
61484;BME280;47349;55.640;37.692;2023-02-15T01:13:05;99545.81;;;-2.94;95.04
61484;BME280;47349;55.640;37.692;2023-02-15T01:15:34;99532.34;;;-3.02;95.72
61484;BME280;47349;55.640;37.692;2023-02-15T01:18:02;99544.16;;;-2.95;95.83
61484;BME280;47349;55.640;37.692;2023-02-15T01:20:29;99568.66;;;-2.96;94.47
61484;BME280;47349;55.640;37.692;2023-02-15T01:22:56;99572.50;;;-2.87;94.90
61484;BME280;47349;55.640;37.692;2023-02-15T01:25:23;99575.50;;;-2.93;95.20
61484;BME280;47349;55.640;37.692;2023-02-15T01:27:50;99548.72;;;-2.98;94.21
61484;BME280;47349;55.640;37.692;2023-02-15T01:30:17;99534.28;;;-2.91;94.02
61484;BME280;47349;55.640;37.692;2023-02-15T01:32:45;99546.09;;;-2.98;92.88
61484;BME280;47349;55.640;37.692;2023-02-15T01:35:12;99545.34;;;-3.00;93.27
61484;BME280;47349;55.640;37.692;2023-02-15T01:37:39;99564.84;;;-3.04;92.53
61484;BME280;47349;55.640;37.692;2023-02-15T01:40:10;99601.16;;;-2.98;93.76
61484;BME280;47349;55.640;37.692;2023-02-15T01:42:38;99606.78;;;-3.04;92.98
61484;BME280;47349;55.640;37.692;2023-02-15T01:45:20;99597.03;;;-3.02;91.87
61484;BME280;47349;55.640;37.692;2023-02-15T01:53:01;99570.81;;;-3.02;92.76
61484;BME280;47349;55.640;37.692;2023-02-15T01:55:31;99591.97;;;-3.05;93.51
61484;BME280;47349;55.640;37.692;2023-02-15T01:57:59;99565.00;;;-3.07;94.42
61484;BME280;47349;55.640;37.692;2023-02-15T02:00:27;99531.09;;;-3.11;94.74
61484;BME280;47349;55.640;37.692;2023-02-15T02:02:54;99596.56;;;-3.09;94.75
61484;BME280;47349;55.640;37.692;2023-02-15T02:05:24;99574.00;;;-3.12;92.90
61484;BME280;47349;55.640;37.692;2023-02-15T02:07:52;99538.13;;;-3.11;91.39
61484;BME280;47349;55.640;37.692;2023-02-15T02:10:22;99610.53;;;-3.08;89.95
61484;BME280;47349;55.640;37.692;2023-02-15T02:12:52;99547.59;;;-3.08;90.47
61484;BME280;47349;55.640;37.692;2023-02-15T02:15:27;99572.97;;;-3.09;90.60
61484;BME280;47349;55.640;37.692;2023-02-15T02:30:59;99607.97;;;-3.10;88.76
61484;BME280;47349;55.640;37.692;2023-02-15T02:36:09;99636.81;;;-3.10;88.12
61484;BME280;47349;55.640;37.692;2023-02-15T02:49:35;99607.63;;;-3.04;88.82
61484;BME280;47349;55.640;37.692;2023-02-15T02:52:03;99600.03;;;-3.08;87.91
61484;BME280;47349;55.640;37.692;2023-02-15T02:54:32;99613.50;;;-3.00;88.08
61484;BME280;47349;55.640;37.692;2023-02-15T02:57:01;99630.44;;;-3.06;87.40
61484;BME280;47349;55.640;37.692;2023-02-15T02:59:31;99602.94;;;-3.13;87.59
61484;BME280;47349;55.640;37.692;2023-02-15T03:02:06;99626.41;;;-3.12;87.15
61484;BME280;47349;55.640;37.692;2023-02-15T03:04:40;99614.25;;;-3.13;86.59
61484;BME280;47349;55.640;37.692;2023-02-15T03:07:11;99632.69;;;-3.14;87.42
61484;BME280;47349;55.640;37.692;2023-02-15T03:09:41;99617.31;;;-3.20;86.55
61484;BME280;47349;55.640;37.692;2023-02-15T03:15:01;99619.94;;;-3.20;87.08
61484;BME280;47349;55.640;37.692;2023-02-15T03:17:31;99631.81;;;-3.15;87.71
61484;BME280;47349;55.640;37.692;2023-02-15T03:20:01;99613.31;;;-3.12;87.48
61484;BME280;47349;55.640;37.692;2023-02-15T03:22:34;99632.19;;;-3.21;86.70
61484;BME280;47349;55.640;37.692;2023-02-15T03:25:09;99648.97;;;-3.23;86.39
61484;BME280;47349;55.640;37.692;2023-02-15T03:27:45;99662.22;;;-3.26;86.04
61484;BME280;47349;55.640;37.692;2023-02-15T03:30:14;99624.03;;;-3.30;86.50
61484;BME280;47349;55.640;37.692;2023-02-15T03:32:42;99624.13;;;-3.32;86.71
61484;BME280;47349;55.640;37.692;2023-02-15T03:35:10;99633.56;;;-3.29;87.22
61484;BME280;47349;55.640;37.692;2023-02-15T03:40:10;99645.47;;;-3.38;87.08
61484;BME280;47349;55.640;37.692;2023-02-15T03:45:34;99638.59;;;-3.41;86.79
61484;BME280;47349;55.640;37.692;2023-02-15T03:48:03;99615.50;;;-3.34;87.48
61484;BME280;47349;55.640;37.692;2023-02-15T03:50:33;99646.47;;;-3.41;87.43
61484;BME280;47349;55.640;37.692;2023-02-15T03:53:23;99658.31;;;-3.49;86.92
61484;BME280;47349;55.640;37.692;2023-02-15T03:55:55;99598.84;;;-3.47;87.82
61484;BME280;47349;55.640;37.692;2023-02-15T03:58:23;99604.06;;;-3.47;87.51
61484;BME280;47349;55.640;37.692;2023-02-15T04:01:27;99650.03;;;-3.42;88.24
61484;BME280;47349;55.640;37.692;2023-02-15T04:04:18;99651.56;;;-3.53;87.65
61484;BME280;47349;55.640;37.692;2023-02-15T04:06:45;99646.56;;;-3.58;87.95
61484;BME280;47349;55.640;37.692;2023-02-15T04:09:13;99639.66;;;-3.59;87.17
61484;BME280;47349;55.640;37.692;2023-02-15T04:11:58;99670.50;;;-3.64;87.47
61484;BME280;47349;55.640;37.692;2023-02-15T04:14:26;99671.53;;;-3.67;87.13
61484;BME280;47349;55.640;37.692;2023-02-15T04:17:14;99658.44;;;-3.67;88.32
61484;BME280;47349;55.640;37.692;2023-02-15T04:19:41;99655.38;;;-3.59;87.98
61484;BME280;47349;55.640;37.692;2023-02-15T04:22:28;99641.34;;;-3.58;87.52
61484;BME280;47349;55.640;37.692;2023-02-15T04:25:13;99648.56;;;-3.62;88.19
61484;BME280;47349;55.640;37.692;2023-02-15T04:27:45;99678.97;;;-3.75;87.25
61484;BME280;47349;55.640;37.692;2023-02-15T04:30:19;99657.94;;;-3.73;87.75
61484;BME280;47349;55.640;37.692;2023-02-15T04:32:46;99626.19;;;-3.67;88.01
61484;BME280;47349;55.640;37.692;2023-02-15T04:35:14;99650.91;;;-3.73;87.97
61484;BME280;47349;55.640;37.692;2023-02-15T04:37:41;99641.78;;;-3.66;88.28
61484;BME280;47349;55.640;37.692;2023-02-15T04:40:11;99657.03;;;-3.72;87.12
61484;BME280;47349;55.640;37.692;2023-02-15T04:42:38;99678.47;;;-3.81;85.94
61484;BME280;47349;55.640;37.692;2023-02-15T04:45:05;99651.25;;;-3.79;86.24
61484;BME280;47349;55.640;37.692;2023-02-15T04:47:46;99646.81;;;-3.77;85.76
61484;BME280;47349;55.640;37.692;2023-02-15T04:50:14;99700.00;;;-3.76;84.38
61484;BME280;47349;55.640;37.692;2023-02-15T04:52:41;99649.75;;;-3.83;84.69
61484;BME280;47349;55.640;37.692;2023-02-15T04:55:08;99663.88;;;-3.85;83.71
61484;BME280;47349;55.640;37.692;2023-02-15T04:57:40;99671.38;;;-3.79;84.17
61484;BME280;47349;55.640;37.692;2023-02-15T05:00:07;99644.59;;;-3.84;82.93
61484;BME280;47349;55.640;37.692;2023-02-15T05:02:50;99666.03;;;-3.78;83.65
61484;BME280;47349;55.640;37.692;2023-02-15T05:05:17;99645.19;;;-3.79;83.43
61484;BME280;47349;55.640;37.692;2023-02-15T05:07:44;99654.06;;;-3.82;83.68
61484;BME280;47349;55.640;37.692;2023-02-15T05:10:14;99635.91;;;-3.85;82.28
61484;BME280;47349;55.640;37.692;2023-02-15T05:12:55;99653.13;;;-3.81;83.61
61484;BME280;47349;55.640;37.692;2023-02-15T05:15:38;99678.78;;;-3.88;83.33
61484;BME280;47349;55.640;37.692;2023-02-15T05:18:07;99651.63;;;-3.85;83.79
61484;BME280;47349;55.640;37.692;2023-02-15T05:20:34;99689.78;;;-3.81;83.82
61484;BME280;47349;55.640;37.692;2023-02-15T05:23:01;99678.06;;;-3.90;83.20
61484;BME280;47349;55.640;37.692;2023-02-15T05:25:28;99701.63;;;-3.90;85.15
61484;BME280;47349;55.640;37.692;2023-02-15T05:28:14;99690.78;;;-3.83;83.32
61484;BME280;47349;55.640;37.692;2023-02-15T05:30:51;99659.88;;;-3.93;83.34
61484;BME280;47349;55.640;37.692;2023-02-15T05:33:23;99671.19;;;-3.92;83.94
61484;BME280;47349;55.640;37.692;2023-02-15T05:35:51;99684.72;;;-4.00;84.85
61484;BME280;47349;55.640;37.692;2023-02-15T05:38:18;99692.63;;;-4.01;85.17
61484;BME280;47349;55.640;37.692;2023-02-15T05:40:45;99682.34;;;-4.04;84.29
61484;BME280;47349;55.640;37.692;2023-02-15T05:43:15;99689.44;;;-4.06;85.54
61484;BME280;47349;55.640;37.692;2023-02-15T05:45:57;99694.59;;;-3.89;85.28
61484;BME280;47349;55.640;37.692;2023-02-15T05:48:25;99714.84;;;-3.93;83.74
61484;BME280;47349;55.640;37.692;2023-02-15T05:51:02;99693.25;;;-3.96;83.42
61484;BME280;47349;55.640;37.692;2023-02-15T05:53:30;99706.25;;;-3.95;84.13
61484;BME280;47349;55.640;37.692;2023-02-15T05:55:58;99706.75;;;-3.88;83.98
61484;BME280;47349;55.640;37.692;2023-02-15T05:58:30;99721.44;;;-4.01;83.05
61484;BME280;47349;55.640;37.692;2023-02-15T06:00:58;99703.09;;;-4.01;83.84
61484;BME280;47349;55.640;37.692;2023-02-15T06:03:26;99698.66;;;-3.99;83.66
61484;BME280;47349;55.640;37.692;2023-02-15T06:05:55;99702.94;;;-3.98;82.98
61484;BME280;47349;55.640;37.692;2023-02-15T06:08:22;99702.94;;;-3.98;82.49
61484;BME280;47349;55.640;37.692;2023-02-15T06:11:04;99707.00;;;-4.08;82.39
61484;BME280;47349;55.640;37.692;2023-02-15T06:13:47;99693.50;;;-4.01;82.98
61484;BME280;47349;55.640;37.692;2023-02-15T06:16:21;99689.00;;;-3.83;83.54
61484;BME280;47349;55.640;37.692;2023-02-15T06:18:48;99692.22;;;-3.78;83.33
61484;BME280;47349;55.640;37.692;2023-02-15T06:21:19;99720.03;;;-3.91;82.16
61484;BME280;47349;55.640;37.692;2023-02-15T06:23:46;99717.56;;;-3.94;82.18
61484;BME280;47349;55.640;37.692;2023-02-15T06:26:13;99727.09;;;-4.09;81.79
61484;BME280;47349;55.640;37.692;2023-02-15T06:28:54;99750.22;;;-4.01;82.73
61484;BME280;47349;55.640;37.692;2023-02-15T06:31:23;99725.91;;;-4.03;83.10
61484;BME280;47349;55.640;37.692;2023-02-15T06:33:50;99738.41;;;-4.08;83.06
61484;BME280;47349;55.640;37.692;2023-02-15T06:36:40;99722.38;;;-4.02;83.90
61484;BME280;47349;55.640;37.692;2023-02-15T06:39:07;99713.22;;;-4.11;81.98
61484;BME280;47349;55.640;37.692;2023-02-15T06:41:51;99710.63;;;-4.11;82.53
61484;BME280;47349;55.640;37.692;2023-02-15T06:44:23;99716.03;;;-3.98;83.29
61484;BME280;47349;55.640;37.692;2023-02-15T06:46:54;99724.16;;;-4.03;82.65
61484;BME280;47349;55.640;37.692;2023-02-15T06:49:21;99749.63;;;-4.06;82.56
61484;BME280;47349;55.640;37.692;2023-02-15T06:51:48;99725.06;;;-4.04;83.49
61484;BME280;47349;55.640;37.692;2023-02-15T06:54:15;99717.97;;;-4.02;83.89
61484;BME280;47349;55.640;37.692;2023-02-15T06:56:42;99746.16;;;-4.07;83.26
61484;BME280;47349;55.640;37.692;2023-02-15T06:59:10;99747.19;;;-4.09;83.24
61484;BME280;47349;55.640;37.692;2023-02-15T07:01:38;99717.47;;;-4.08;84.04
61484;BME280;47349;55.640;37.692;2023-02-15T07:04:06;99735.03;;;-4.10;83.14
61484;BME280;47349;55.640;37.692;2023-02-15T07:06:44;99738.41;;;-4.08;82.80
61484;BME280;47349;55.640;37.692;2023-02-15T07:09:37;99745.50;;;-4.10;83.26
61484;BME280;47349;55.640;37.692;2023-02-15T07:12:04;99719.69;;;-4.01;84.09
61484;BME280;47349;55.640;37.692;2023-02-15T07:14:49;99739.44;;;-3.95;83.73
61484;BME280;47349;55.640;37.692;2023-02-15T07:17:17;99736.97;;;-3.98;84.18
61484;BME280;47349;55.640;37.692;2023-02-15T07:20:02;99726.50;;;-3.98;83.87
61484;BME280;47349;55.640;37.692;2023-02-15T07:22:31;99747.00;;;-4.06;84.63
61484;BME280;47349;55.640;37.692;2023-02-15T07:25:00;99744.81;;;-4.14;85.01
61484;BME280;47349;55.640;37.692;2023-02-15T07:27:29;99737.06;;;-4.16;84.99
61484;BME280;47349;55.640;37.692;2023-02-15T07:29:57;99743.50;;;-4.05;85.86
61484;BME280;47349;55.640;37.692;2023-02-15T07:32:26;99744.72;;;-4.13;86.12
61484;BME280;47349;55.640;37.692;2023-02-15T07:34:53;99728.94;;;-4.11;87.24
61484;BME280;47349;55.640;37.692;2023-02-15T07:37:20;99736.22;;;-4.00;87.41
61484;BME280;47349;55.640;37.692;2023-02-15T07:39:47;99759.34;;;-4.08;86.16
61484;BME280;47349;55.640;37.692;2023-02-15T07:42:14;99761.84;;;-4.23;86.54
61484;BME280;47349;55.640;37.692;2023-02-15T07:44:41;99738.66;;;-4.13;87.91
61484;BME280;47349;55.640;37.692;2023-02-15T07:47:08;99719.00;;;-4.04;87.53
61484;BME280;47349;55.640;37.692;2023-02-15T07:49:35;99715.09;;;-3.97;86.66
61484;BME280;47349;55.640;37.692;2023-02-15T07:52:02;99720.84;;;-4.06;86.35
61484;BME280;47349;55.640;37.692;2023-02-15T07:54:29;99762.47;;;-4.02;86.06
61484;BME280;47349;55.640;37.692;2023-02-15T07:56:56;99772.53;;;-3.94;86.06
61484;BME280;47349;55.640;37.692;2023-02-15T07:59:23;99736.88;;;-3.97;85.61
61484;BME280;47349;55.640;37.692;2023-02-15T08:01:51;99759.56;;;-3.96;85.04
61484;BME280;47349;55.640;37.692;2023-02-15T08:04:20;99760.25;;;-3.76;85.29
61484;BME280;47349;55.640;37.692;2023-02-15T08:06:47;99790.97;;;-3.80;85.20
61484;BME280;47349;55.640;37.692;2023-02-15T08:09:18;99765.78;;;-3.82;84.79
61484;BME280;47349;55.640;37.692;2023-02-15T08:11:46;99765.28;;;-3.89;84.87
61484;BME280;47349;55.640;37.692;2023-02-15T08:14:17;99782.88;;;-3.91;85.61
61484;BME280;47349;55.640;37.692;2023-02-15T08:16:46;99761.44;;;-3.82;85.99
61484;BME280;47349;55.640;37.692;2023-02-15T08:19:18;99739.75;;;-4.01;84.57
61484;BME280;47349;55.640;37.692;2023-02-15T08:22:00;99781.97;;;-4.07;84.25
61484;BME280;47349;55.640;37.692;2023-02-15T08:24:41;99714.75;;;-4.07;85.33
61484;BME280;47349;55.640;37.692;2023-02-15T08:27:11;99762.22;;;-3.97;85.08
61484;BME280;47349;55.640;37.692;2023-02-15T08:29:55;99777.28;;;-4.01;83.26
61484;BME280;47349;55.640;37.692;2023-02-15T08:32:35;99754.06;;;-3.91;83.82
61484;BME280;47349;55.640;37.692;2023-02-15T08:35:04;99779.31;;;-3.90;83.61
61484;BME280;47349;55.640;37.692;2023-02-15T08:37:31;99788.28;;;-3.78;83.76
61484;BME280;47349;55.640;37.692;2023-02-15T08:39:58;99764.72;;;-3.78;82.53
61484;BME280;47349;55.640;37.692;2023-02-15T08:42:25;99781.25;;;-3.78;81.94
61484;BME280;47349;55.640;37.692;2023-02-15T08:44:53;99775.44;;;-3.83;82.96
61484;BME280;47349;55.640;37.692;2023-02-15T08:47:28;99788.75;;;-3.88;83.05
61484;BME280;47349;55.640;37.692;2023-02-15T08:49:55;99764.59;;;-3.93;82.37
61484;BME280;47349;55.640;37.692;2023-02-15T08:52:23;99799.09;;;-3.84;83.33
61484;BME280;47349;55.640;37.692;2023-02-15T08:54:50;99784.06;;;-3.81;83.27
61484;BME280;47349;55.640;37.692;2023-02-15T08:57:16;99787.63;;;-3.82;83.70
61484;BME280;47349;55.640;37.692;2023-02-15T08:59:43;99779.41;;;-3.76;84.06
61484;BME280;47349;55.640;37.692;2023-02-15T09:02:10;99778.97;;;-3.68;83.66
61484;BME280;47349;55.640;37.692;2023-02-15T09:04:37;99780.84;;;-3.54;84.92
61484;BME280;47349;55.640;37.692;2023-02-15T09:07:04;99783.06;;;-3.63;85.09
61484;BME280;47349;55.640;37.692;2023-02-15T09:09:31;99781.59;;;-3.68;85.11
61484;BME280;47349;55.640;37.692;2023-02-15T09:11:59;99777.97;;;-3.50;84.21
61484;BME280;47349;55.640;37.692;2023-02-15T09:14:26;99774.28;;;-3.62;85.33
61484;BME280;47349;55.640;37.692;2023-02-15T09:16:53;99778.16;;;-3.69;87.17
61484;BME280;47349;55.640;37.692;2023-02-15T09:19:21;99765.81;;;-3.67;87.16
61484;BME280;47349;55.640;37.692;2023-02-15T09:21:48;99779.25;;;-3.57;86.72
61484;BME280;47349;55.640;37.692;2023-02-15T09:24:15;99792.78;;;-3.65;86.11
61484;BME280;47349;55.640;37.692;2023-02-15T09:26:44;99778.34;;;-3.72;86.78
61484;BME280;47349;55.640;37.692;2023-02-15T09:29:11;99776.97;;;-3.79;86.91
61484;BME280;47349;55.640;37.692;2023-02-15T09:31:40;99771.03;;;-3.82;85.91
61484;BME280;47349;55.640;37.692;2023-02-15T09:34:08;99808.81;;;-3.71;86.87
61484;BME280;47349;55.640;37.692;2023-02-15T09:36:36;99793.44;;;-3.77;87.49
61484;BME280;47349;55.640;37.692;2023-02-15T09:39:06;99783.13;;;-3.64;87.18
61484;BME280;47349;55.640;37.692;2023-02-15T09:46:55;99782.53;;;-3.69;86.32
61484;BME280;47349;55.640;37.692;2023-02-15T09:54:42;99805.78;;;-3.63;84.57
61484;BME280;47349;55.640;37.692;2023-02-15T09:57:20;99816.50;;;-3.68;84.77
61484;BME280;47349;55.640;37.692;2023-02-15T09:59:57;99819.06;;;-3.66;85.53
61484;BME280;47349;55.640;37.692;2023-02-15T10:02:48;99805.22;;;-3.52;86.47
61484;BME280;47349;55.640;37.692;2023-02-15T10:22:13;99826.13;;;-3.68;86.48
61484;BME280;47349;55.640;37.692;2023-02-15T10:27:20;99823.94;;;-3.60;86.45
61484;BME280;47349;55.640;37.692;2023-02-15T10:30:11;99832.25;;;-3.52;87.05
61484;BME280;47349;55.640;37.692;2023-02-15T10:32:45;99829.78;;;-3.39;86.75
61484;BME280;47349;55.640;37.692;2023-02-15T10:37:47;99846.09;;;-3.50;84.30
61484;BME280;47349;55.640;37.692;2023-02-15T10:45:33;99831.78;;;-3.76;87.64
61484;BME280;47349;55.640;37.692;2023-02-15T10:50:54;99844.91;;;-3.60;87.57
61484;BME280;47349;55.640;37.692;2023-02-15T10:55:52;99850.75;;;-3.55;86.76
61484;BME280;47349;55.640;37.692;2023-02-15T11:01:16;99846.03;;;-3.32;86.99
61484;BME280;47349;55.640;37.692;2023-02-15T11:03:54;99859.41;;;-3.37;86.13
61484;BME280;47349;55.640;37.692;2023-02-15T11:06:27;99848.47;;;-3.45;87.63
61484;BME280;47349;55.640;37.692;2023-02-15T11:09:02;99851.94;;;-3.29;89.04
61484;BME280;47349;55.640;37.692;2023-02-15T11:11:32;99850.50;;;-3.50;89.42
61484;BME280;47349;55.640;37.692;2023-02-15T11:16:50;99850.59;;;-3.36;90.40
61484;BME280;47349;55.640;37.692;2023-02-15T11:19:21;99866.66;;;-3.42;89.90
61484;BME280;47349;55.640;37.692;2023-02-15T11:21:50;99865.88;;;-3.44;89.93
61484;BME280;47349;55.640;37.692;2023-02-15T11:24:20;99864.53;;;-3.36;89.12
61484;BME280;47349;55.640;37.692;2023-02-15T11:26:56;99856.09;;;-3.25;88.26
61484;BME280;47349;55.640;37.692;2023-02-15T11:29:35;99875.72;;;-3.32;87.40
61484;BME280;47349;55.640;37.692;2023-02-15T11:32:18;99869.78;;;-3.36;86.00
61484;BME280;47349;55.640;37.692;2023-02-15T11:34:58;99873.34;;;-3.37;85.47
61484;BME280;47349;55.640;37.692;2023-02-15T11:37:37;99879.41;;;-3.52;86.92
61484;BME280;47349;55.640;37.692;2023-02-15T11:40:21;99860.72;;;-3.46;86.85
61484;BME280;47349;55.640;37.692;2023-02-15T11:42:49;99878.03;;;-3.59;86.31
61484;BME280;47349;55.640;37.692;2023-02-15T11:47:51;99892.75;;;-3.56;84.76
61484;BME280;47349;55.640;37.692;2023-02-15T11:50:23;99881.44;;;-3.41;84.73
61484;BME280;47349;55.640;37.692;2023-02-15T11:52:52;99898.16;;;-3.44;83.30
61484;BME280;47349;55.640;37.692;2023-02-15T11:55:21;99892.69;;;-3.39;83.34
61484;BME280;47349;55.640;37.692;2023-02-15T11:57:54;99897.50;;;-3.47;82.98
61484;BME280;47349;55.640;37.692;2023-02-15T12:00:42;99886.91;;;-3.62;83.41
61484;BME280;47349;55.640;37.692;2023-02-15T12:03:12;99890.72;;;-3.51;83.99
61484;BME280;47349;55.640;37.692;2023-02-15T12:05:42;99900.13;;;-3.47;81.46
61484;BME280;47349;55.640;37.692;2023-02-15T12:10:55;99907.50;;;-3.38;81.69
61484;BME280;47349;55.640;37.692;2023-02-15T12:13:24;99909.00;;;-3.34;81.41
61484;BME280;47349;55.640;37.692;2023-02-15T12:15:55;99914.75;;;-3.43;80.52
61484;BME280;47349;55.640;37.692;2023-02-15T12:21:09;99888.31;;;-3.23;78.88
61484;BME280;47349;55.640;37.692;2023-02-15T12:23:49;99905.38;;;-3.16;78.61
61484;BME280;47349;55.640;37.692;2023-02-15T12:26:24;99928.81;;;-3.13;78.61
61484;BME280;47349;55.640;37.692;2023-02-15T12:28:51;99924.81;;;-3.20;78.50
61484;BME280;47349;55.640;37.692;2023-02-15T12:33:48;99931.84;;;-3.20;79.93
61484;BME280;47349;55.640;37.692;2023-02-15T12:36:21;99907.31;;;-3.19;78.90
61484;BME280;47349;55.640;37.692;2023-02-15T12:39:02;99920.19;;;-3.15;78.77
61484;BME280;47349;55.640;37.692;2023-02-15T12:41:29;99928.97;;;-3.16;78.52
61484;BME280;47349;55.640;37.692;2023-02-15T12:44:07;99916.97;;;-3.20;79.67
61484;BME280;47349;55.640;37.692;2023-02-15T12:46:42;99930.88;;;-3.51;80.30
61484;BME280;47349;55.640;37.692;2023-02-15T12:49:33;99929.56;;;-3.59;81.29
61484;BME280;47349;55.640;37.692;2023-02-15T12:52:01;99955.41;;;-3.69;80.97
61484;BME280;47349;55.640;37.692;2023-02-15T12:54:33;99954.88;;;-3.76;81.80
61484;BME280;47349;55.640;37.692;2023-02-15T12:59:59;99969.13;;;-3.81;80.93
61484;BME280;47349;55.640;37.692;2023-02-15T13:04:55;99985.38;;;-3.75;81.30
61484;BME280;47349;55.640;37.692;2023-02-15T13:07:24;99940.09;;;-3.77;81.22
61484;BME280;47349;55.640;37.692;2023-02-15T13:09:52;99999.78;;;-3.83;80.41
61484;BME280;47349;55.640;37.692;2023-02-15T13:12:23;99999.94;;;-3.86;80.32
61484;BME280;47349;55.640;37.692;2023-02-15T13:14:54;99988.13;;;-3.78;80.97
61484;BME280;47349;55.640;37.692;2023-02-15T13:17:29;99996.78;;;-3.76;79.71
61484;BME280;47349;55.640;37.692;2023-02-15T13:19:59;99983.69;;;-3.76;78.68
61484;BME280;47349;55.640;37.692;2023-02-15T13:22:33;99967.19;;;-3.78;77.67
61484;BME280;47349;55.640;37.692;2023-02-15T13:25:09;100003.09;;;-3.80;76.72
61484;BME280;47349;55.640;37.692;2023-02-15T13:27:41;99997.53;;;-3.74;77.61
61484;BME280;47349;55.640;37.692;2023-02-15T13:32:49;99995.53;;;-3.69;76.32
61484;BME280;47349;55.640;37.692;2023-02-15T13:35:18;99997.63;;;-3.75;75.23
61484;BME280;47349;55.640;37.692;2023-02-15T13:59:37;100013.72;;;-3.66;75.54
61484;BME280;47349;55.640;37.692;2023-02-15T14:07:23;100035.66;;;-3.68;75.36
61484;BME280;47349;55.640;37.692;2023-02-15T14:13:16;100018.97;;;-3.66;75.18
61484;BME280;47349;55.640;37.692;2023-02-15T14:15:35;100031.81;;;-3.61;75.08
61484;BME280;47349;55.640;37.692;2023-02-15T14:26:01;100031.75;;;-3.42;75.48
61484;BME280;47349;55.640;37.692;2023-02-15T14:28:35;100023.94;;;-3.44;75.51
61484;BME280;47349;55.640;37.692;2023-02-15T14:31:11;100026.66;;;-3.45;76.17
61484;BME280;47349;55.640;37.692;2023-02-15T14:33:43;100044.06;;;-3.44;76.71
61484;BME280;47349;55.640;37.692;2023-02-15T14:36:17;100044.22;;;-3.47;77.23
61484;BME280;47349;55.640;37.692;2023-02-15T14:38:54;100058.47;;;-3.70;77.52
61484;BME280;47349;55.640;37.692;2023-02-15T14:46:42;100045.00;;;-3.63;79.01
61484;BME280;47349;55.640;37.692;2023-02-15T14:49:25;100043.63;;;-3.52;78.42
61484;BME280;47349;55.640;37.692;2023-02-15T14:51:57;100062.41;;;-3.62;78.69
61484;BME280;47349;55.640;37.692;2023-02-15T15:02:17;100079.97;;;-3.64;79.77
61484;BME280;47349;55.640;37.692;2023-02-15T15:04:58;100071.44;;;-3.67;79.47
61484;BME280;47349;55.640;37.692;2023-02-15T15:07:27;100061.56;;;-3.62;79.29
61484;BME280;47349;55.640;37.692;2023-02-15T15:15:32;100060.25;;;-3.71;79.27
61484;BME280;47349;55.640;37.692;2023-02-15T15:21:03;100056.78;;;-3.71;79.40
61484;BME280;47349;55.640;37.692;2023-02-15T15:23:37;100100.56;;;-3.92;80.40
61484;BME280;47349;55.640;37.692;2023-02-15T15:26:22;100094.34;;;-3.90;80.75
61484;BME280;47349;55.640;37.692;2023-02-15T15:31:18;100105.66;;;-3.89;79.55
61484;BME280;47349;55.640;37.692;2023-02-15T15:47:22;100102.47;;;-3.59;79.49
61484;BME280;47349;55.640;37.692;2023-02-15T15:50:10;100098.91;;;-3.58;79.52
61484;BME280;47349;55.640;37.692;2023-02-15T15:52:46;100113.03;;;-3.61;79.50
61484;BME280;47349;55.640;37.692;2023-02-15T15:55:18;100109.09;;;-3.70;80.18
61484;BME280;47349;55.640;37.692;2023-02-15T15:57:51;100124.09;;;-3.73;79.99
61484;BME280;47349;55.640;37.692;2023-02-15T16:00:24;100123.47;;;-3.78;80.21
61484;BME280;47349;55.640;37.692;2023-02-15T16:02:54;100112.25;;;-3.80;80.05
61484;BME280;47349;55.640;37.692;2023-02-15T16:05:23;100119.56;;;-3.70;80.71
61484;BME280;47349;55.640;37.692;2023-02-15T16:07:50;100114.19;;;-3.67;79.86
61484;BME280;47349;55.640;37.692;2023-02-15T16:10:24;100116.81;;;-3.67;79.45
61484;BME280;47349;55.640;37.692;2023-02-15T16:12:51;100122.28;;;-3.71;79.20